Time;durP1;ratioP1;P1;durP2;ratioP2;P2;SDS_P1;SDS_P2;PMS_P1;PMS_P2;Temp;Humidity;BMP_temperature;BMP_pressure;BME280_temperature;BME280_humidity;BME280_pressure;Samples;Min_cycle;Max_cycle;Signal;HPM_P1;HPM_P2
2021/09/17 00:01:28;;;;;;;;;14.00;14.00;;;;;20.64;54.12;101090.31;5069253;28;45833;-79
2021/09/17 00:03:53;;;;;;;;;13.75;13.75;;;;;20.50;54.25;101065.16;5077255;27;45525;-79
2021/09/17 00:06:18;;;;;;;;;16.50;15.50;;;;;20.58;54.14;101083.81;5077468;27;45617;-83
2021/09/17 00:08:44;;;;;;;;;14.50;14.00;;;;;20.57;54.20;101076.81;5076936;27;45628;-82
2021/09/17 00:11:09;;;;;;;;;11.50;9.00;;;;;20.49;54.34;101060.81;5092324;27;46195;-83
2021/09/17 00:16:56;;;;;;;;;14.75;13.00;;;;;20.61;54.41;101083.50;5076458;28;45806;-83
2021/09/17 00:19:22;;;;;;;;;19.00;15.00;;;;;20.59;54.38;101071.31;5075257;27;48286;-82
2021/09/17 00:21:48;;;;;;;;;13.25;12.25;;;;;20.55;54.48;101070.84;5076845;27;46479;-82
2021/09/17 00:24:13;;;;;;;;;13.00;12.00;;;;;20.59;54.37;101080.16;5076851;28;45523;-84
2021/09/17 00:26:38;;;;;;;;;14.00;13.00;;;;;20.58;54.45;101064.34;5075181;28;45629;-84
2021/09/17 00:29:04;;;;;;;;;12.00;12.00;;;;;20.55;54.34;101062.00;5076580;27;45490;-86
2021/09/17 00:31:29;;;;;;;;;14.50;13.00;;;;;20.55;54.36;101068.16;5076281;28;46250;-82
2021/09/17 00:33:55;;;;;;;;;14.00;12.50;;;;;20.45;54.78;101059.50;5076417;27;45799;-86
2021/09/17 00:36:20;;;;;;;;;16.25;15.00;;;;;20.43;54.34;101050.81;5077608;27;45569;-84
2021/09/17 00:38:46;;;;;;;;;15.50;14.50;;;;;20.50;54.55;101065.16;5079777;27;46715;-82
2021/09/17 00:41:11;;;;;;;;;13.75;12.50;;;;;20.40;54.36;101053.81;5079322;27;46514;-82
2021/09/17 00:46:58;;;;;;;;;14.00;11.50;;;;;20.39;54.27;101060.13;5079601;28;45892;-84
2021/09/17 00:49:25;;;;;;;;;15.25;15.00;;;;;20.42;54.75;101063.28;5076575;27;46755;-84
2021/09/17 00:51:51;;;;;;;;;12.50;11.50;;;;;20.42;54.75;101062.47;5075990;27;46406;-81
2021/09/17 00:54:18;;;;;;;;;15.00;13.50;;;;;20.32;55.10;101041.31;5075824;27;45651;-85
2021/09/17 00:56:45;;;;;;;;;13.25;11.75;;;;;20.32;54.83;101046.63;5076018;28;45541;-82
2021/09/17 01:02:32;;;;;;;;;13.00;12.25;;;;;20.35;54.65;101043.63;5064556;28;45784;-83
2021/09/17 01:04:58;;;;;;;;;15.75;13.75;;;;;20.37;55.06;101054.13;5075756;27;45618;-85
2021/09/17 01:07:25;;;;;;;;;12.75;12.25;;;;;20.33;55.03;101042.97;5075637;28;45447;-84
2021/09/17 01:09:51;;;;;;;;;15.50;14.75;;;;;20.33;55.13;101037.66;5075758;27;45706;-82
2021/09/17 01:12:17;;;;;;;;;15.00;13.75;;;;;20.21;55.46;101019.44;5075568;28;46380;-84
2021/09/17 01:14:43;;;;;;;;;13.00;12.00;;;;;20.32;55.18;101043.97;5074672;27;45490;-84
2021/09/17 01:17:08;;;;;;;;;14.00;13.00;;;;;20.04;55.26;100994.59;5076120;27;45632;-84
2021/09/17 01:19:35;;;;;;;;;15.25;14.75;;;;;20.29;55.14;101041.63;5076070;27;46492;-81
2021/09/17 01:22:04;;;;;;;;;14.50;14.00;;;;;20.23;55.26;101023.63;5075660;27;46062;-83
2021/09/17 01:24:30;;;;;;;;;15.25;14.25;;;;;20.18;55.30;101028.59;5076034;27;45613;-86
2021/09/17 01:26:56;;;;;;;;;18.00;17.25;;;;;20.26;55.39;101035.75;5076241;27;45732;-84
2021/09/17 01:32:43;;;;;;;;;13.00;13.00;;;;;20.23;55.33;101025.44;5075293;28;45612;-84
2021/09/17 01:35:14;;;;;;;;;14.50;14.00;;;;;20.17;55.38;101010.13;5075411;27;45546;-81
2021/09/17 01:37:40;;;;;;;;;14.50;14.50;;;;;20.18;55.42;101011.78;5091119;27;45625;-79
2021/09/17 01:40:07;;;;;;;;;16.25;14.75;;;;;20.20;55.42;101017.78;5075518;27;45688;-84
2021/09/17 01:42:32;;;;;;;;;13.00;13.00;;;;;20.16;55.41;101008.44;5075266;27;45502;-83
2021/09/17 01:44:58;;;;;;;;;14.75;14.50;;;;;20.09;55.37;100997.63;5075102;27;45733;-80
2021/09/17 01:47:23;;;;;;;;;14.25;14.00;;;;;20.07;55.35;100986.31;5075126;27;45596;-84
2021/09/17 01:49:49;;;;;;;;;12.25;12.25;;;;;19.97;55.35;100972.31;5075660;27;45716;-86
2021/09/17 01:52:14;;;;;;;;;15.50;13.50;;;;;20.11;55.61;100995.63;5075202;28;45644;-82
2021/09/17 01:54:42;;;;;;;;;14.75;13.00;;;;;20.14;55.96;101000.63;5075159;27;45621;-82
2021/09/17 01:57:07;;;;;;;;;14.00;14.00;;;;;20.14;55.59;100997.97;5075305;27;45458;-81
2021/09/17 02:02:54;;;;;;;;;14.25;12.50;;;;;20.03;55.48;100975.16;5071110;28;46077;-79
2021/09/17 02:05:20;;;;;;;;;13.25;13.00;;;;;20.11;55.62;100990.31;5074972;27;45455;-80
2021/09/17 02:07:45;;;;;;;;;13.00;12.00;;;;;20.06;55.88;100984.66;5075938;27;45484;-79
2021/09/17 02:10:12;;;;;;;;;16.50;15.00;;;;;20.09;56.01;100986.97;5075378;27;45612;-77
2021/09/17 02:12:39;;;;;;;;;18.25;16.50;;;;;19.95;55.99;100967.16;5075676;27;45592;-80
2021/09/17 02:15:06;;;;;;;;;16.50;16.00;;;;;20.01;55.86;100973.66;5076013;27;45707;-78
2021/09/17 02:17:32;;;;;;;;;15.75;15.50;;;;;19.93;56.11;100966.47;5075775;27;45529;-80
2021/09/17 02:19:58;;;;;;;;;16.25;14.50;;;;;19.94;56.28;100969.97;5074451;27;47453;-81
2021/09/17 02:22:24;;;;;;;;;18.25;15.75;;;;;19.91;56.14;100964.97;5074475;27;46020;-79
2021/09/17 02:24:49;;;;;;;;;15.50;14.50;;;;;19.95;56.18;100974.28;5074357;27;45814;-82
2021/09/17 02:27:15;;;;;;;;;15.00;15.00;;;;;19.67;55.97;100933.78;5081607;27;45526;-83
2021/09/17 02:33:02;;;;;;;;;24.25;23.25;;;;;19.84;56.27;100970.09;5082057;28;45712;-82
2021/09/17 02:35:27;;;;;;;;;17.50;17.00;;;;;19.80;56.41;100971.41;5081998;27;45608;-80
2021/09/17 02:37:53;;;;;;;;;43.00;36.25;;;;;19.73;56.22;100957.09;5082870;27;45621;-79
2021/09/17 02:40:18;;;;;;;;;30.00;28.00;;;;;19.75;56.55;100978.19;5080692;27;45717;-82
2021/09/17 02:42:45;;;;;;;;;18.25;15.25;;;;;19.75;56.51;100980.88;5082460;27;45612;-86
2021/09/17 02:48:32;;;;;;;;;14.00;13.25;;;;;19.63;56.66;100967.00;5078204;28;45637;-84
2021/09/17 02:50:58;;;;;;;;;13.00;13.00;;;;;19.54;56.68;100954.69;5077894;27;46358;-84
2021/09/17 02:53:23;;;;;;;;;16.25;13.75;;;;;19.54;56.53;100958.16;5076185;28;46378;-84
2021/09/17 02:55:49;;;;;;;;;16.75;15.25;;;;;19.48;57.17;100961.47;5077772;27;45752;-82
2021/09/17 02:58:14;;;;;;;;;16.00;13.75;;;;;19.38;57.14;100943.94;5078132;27;45804;-83
2021/09/17 03:00:41;;;;;;;;;14.75;14.00;;;;;19.39;57.08;100950.88;5078247;27;45454;-83
2021/09/17 03:03:07;;;;;;;;;15.00;15.00;;;;;19.37;57.12;100955.53;5079112;27;46166;-85
2021/09/17 03:05:33;;;;;;;;;13.00;12.50;;;;;19.36;57.53;100960.03;5078001;27;45514;-84
2021/09/17 03:08:00;;;;;;;;;14.25;13.25;;;;;19.34;57.17;100963.81;5078198;27;45431;-83
2021/09/17 03:10:25;;;;;;;;;20.25;18.50;;;;;19.31;57.55;100966.78;5077640;27;46697;-82
2021/09/17 03:12:51;;;;;;;;;17.75;16.25;;;;;19.25;57.94;100960.28;5077475;27;45620;-81
2021/09/17 03:18:39;;;;;;;;;19.75;17.75;;;;;19.08;57.79;100939.91;5077475;28;45621;-81
2021/09/17 03:21:05;;;;;;;;;14.50;14.50;;;;;19.10;58.12;100936.13;5077572;27;45542;-83
2021/09/17 03:23:31;;;;;;;;;15.25;13.00;;;;;19.08;57.88;100931.94;5077504;27;45718;-81
2021/09/17 03:25:57;;;;;;;;;15.25;15.25;;;;;19.10;58.15;100940.59;5077087;28;45834;-84
2021/09/17 03:28:22;;;;;;;;;16.75;15.75;;;;;19.10;58.06;100940.59;5077483;27;45627;-83
2021/09/17 03:34:09;;;;;;;;;13.25;13.25;;;;;19.07;58.38;100933.75;5077185;28;45758;-82
2021/09/17 03:36:42;;;;;;;;;15.75;14.75;;;;;19.05;58.07;100930.44;5076819;27;45564;-83
2021/09/17 03:39:11;;;;;;;;;14.00;14.00;;;;;18.96;58.32;100926.03;5077469;27;45662;-82
2021/09/17 03:41:38;;;;;;;;;16.50;14.50;;;;;19.04;57.93;100933.25;5075832;28;47572;-83
2021/09/17 03:44:03;;;;;;;;;15.25;14.25;;;;;18.84;58.44;100898.91;5077209;27;46256;-80
2021/09/17 03:46:29;;;;;;;;;14.25;13.50;;;;;18.96;58.07;100919.91;5077305;27;45490;-82
2021/09/17 03:48:55;;;;;;;;;17.25;16.00;;;;;18.99;58.49;100932.88;5077521;27;45529;-80
2021/09/17 03:51:20;;;;;;;;;15.75;14.25;;;;;19.00;58.24;100937.22;5077292;28;45487;-84
2021/09/17 03:53:45;;;;;;;;;14.25;14.00;;;;;18.99;58.60;100935.53;5076814;27;46133;-79
2021/09/17 03:56:11;;;;;;;;;13.50;13.50;;;;;18.97;58.32;100937.50;5076961;28;45641;-83
2021/09/17 03:58:36;;;;;;;;;15.25;14.75;;;;;18.95;58.32;100932.34;5077123;27;45581;-79
2021/09/17 04:04:24;;;;;;;;;13.75;13.50;;;;;18.84;58.72;100924.63;5065150;28;46238;-81
2021/09/17 04:06:49;;;;;;;;;15.25;15.25;;;;;18.84;59.04;100927.28;5076953;27;45474;-81
2021/09/17 04:09:15;;;;;;;;;13.25;12.25;;;;;18.87;58.77;100932.28;5077650;27;45531;-81
2021/09/17 04:11:40;;;;;;;;;15.25;14.25;;;;;18.83;58.97;100925.63;5076427;27;46365;-81
2021/09/17 04:14:06;;;;;;;;;18.75;16.75;;;;;18.88;58.57;100933.97;5078172;27;45812;-81
2021/09/17 04:16:31;;;;;;;;;14.50;14.25;;;;;18.82;58.94;100922.13;5078154;28;45674;-80
2021/09/17 04:18:56;;;;;;;;;16.75;15.75;;;;;18.88;58.73;100930.47;5078977;27;45550;-79
2021/09/17 04:21:22;;;;;;;;;18.00;16.75;;;;;18.84;59.26;100924.63;5078832;27;46579;-79
2021/09/17 04:23:47;;;;;;;;;16.00;14.00;;;;;18.75;59.09;100906.97;5078983;27;45536;-79
2021/09/17 04:26:13;;;;;;;;;18.00;15.75;;;;;18.73;59.37;100917.72;5078581;27;45538;-79
2021/09/17 04:28:38;;;;;;;;;16.00;14.00;;;;;18.80;58.67;100929.41;5079589;27;45481;-79
2021/09/17 04:34:25;;;;;;;;;15.00;14.00;;;;;18.79;59.39;100935.69;5076308;28;45627;-83
2021/09/17 04:36:51;;;;;;;;;17.50;16.00;;;;;18.75;58.98;100921.09;5077238;27;45694;-82
2021/09/17 04:39:16;;;;;;;;;16.50;14.50;;;;;18.79;59.61;100921.59;5076584;27;45621;-82
2021/09/17 04:41:42;;;;;;;;;14.00;13.00;;;;;18.74;59.07;100929.19;5076322;27;46613;-84
2021/09/17 04:44:07;;;;;;;;;16.00;16.00;;;;;18.81;59.19;100932.91;5091946;27;48476;-79
2021/09/17 04:49:54;;;;;;;;;18.00;15.25;;;;;18.71;59.05;100917.06;5076142;28;45512;-82
2021/09/17 04:52:21;;;;;;;;;15.00;14.25;;;;;18.76;59.06;100920.09;5076207;28;46477;-81
2021/09/17 04:54:47;;;;;;;;;17.25;16.75;;;;;18.79;59.53;100929.56;5076074;28;45999;-85
2021/09/17 04:57:13;;;;;;;;;15.75;14.75;;;;;18.80;59.75;100929.41;5075949;27;45517;-82
2021/09/17 04:59:38;;;;;;;;;15.50;14.00;;;;;18.63;59.25;100897.56;5076288;27;45821;-85
2021/09/17 05:02:04;;;;;;;;;16.75;15.25;;;;;18.80;59.61;100928.56;5075772;27;46599;-82
2021/09/17 05:04:29;;;;;;;;;16.25;15.75;;;;;18.80;59.30;100921.44;5076017;27;46071;-80
2021/09/17 05:06:55;;;;;;;;;20.00;18.00;;;;;18.75;59.42;100922.91;5076438;28;45526;-85
2021/09/17 05:09:20;;;;;;;;;16.00;14.75;;;;;18.80;59.59;100923.25;5076122;27;45557;-82
2021/09/17 05:11:45;;;;;;;;;15.75;15.00;;;;;18.71;59.27;100906.44;5075674;27;46376;-84
2021/09/17 05:14:11;;;;;;;;;79.75;70.75;;;;;18.78;59.66;100923.44;5075433;27;45746;-83
2021/09/17 05:19:59;;;;;;;;;33.25;30.00;;;;;18.70;59.86;100910.09;5075709;28;45487;-81
2021/09/17 05:22:25;;;;;;;;;29.50;27.75;;;;;18.77;59.47;100926.25;5075836;27;45617;-81
2021/09/17 05:24:51;;;;;;;;;30.25;27.75;;;;;18.78;59.83;100926.09;5075668;27;46160;-80
2021/09/17 05:27:17;;;;;;;;;27.75;25.75;;;;;18.77;59.96;100916.47;5074798;28;46015;-85
2021/09/17 05:29:42;;;;;;;;;19.75;18.75;;;;;18.51;59.76;100880.22;5075403;27;45607;-81
2021/09/17 05:32:08;;;;;;;;;36.75;32.75;;;;;18.66;60.12;100902.59;5075437;28;46613;-84
2021/09/17 05:34:34;;;;;;;;;24.50;22.75;;;;;18.67;59.77;100896.31;5075142;27;46470;-81
2021/09/17 05:36:59;;;;;;;;;30.50;25.25;;;;;18.76;59.60;100917.44;5075573;28;45958;-81
2021/09/17 05:39:25;;;;;;;;;41.00;33.25;;;;;18.77;60.29;100919.13;5075774;27;45518;-81
2021/09/17 05:41:50;;;;;;;;;29.50;24.50;;;;;18.74;59.91;100908.78;5075233;27;46485;-81
2021/09/17 05:44:16;;;;;;;;;20.75;20.00;;;;;18.70;59.83;100907.44;5074694;27;45826;-82
2021/09/17 05:50:04;;;;;;;;;19.00;18.75;;;;;18.75;60.21;100920.25;5075274;28;45576;-81
2021/09/17 05:52:30;;;;;;;;;20.00;20.00;;;;;18.75;60.03;100922.91;5075186;27;47376;-85
2021/09/17 05:54:56;;;;;;;;;21.25;20.25;;;;;18.69;60.04;100910.22;5075296;28;46017;-87
2021/09/17 05:57:21;;;;;;;;;17.25;17.25;;;;;18.75;60.13;100920.25;5075091;27;46072;-79
2021/09/17 05:59:47;;;;;;;;;19.75;18.00;;;;;18.67;60.19;100910.41;5073994;27;45439;-78
2021/09/17 06:05:33;;;;;;;;;20.00;19.25;;;;;18.72;60.15;100912.59;5063260;28;46036;-77
2021/09/17 06:07:59;;;;;;;;;20.25;19.25;;;;;18.67;60.09;100909.56;5074965;27;45486;-77
2021/09/17 06:10:24;;;;;;;;;21.00;19.50;;;;;18.71;60.15;100911.75;5075244;27;45825;-78
2021/09/17 06:12:50;;;;;;;;;18.75;17.75;;;;;18.72;60.53;100916.09;5072756;27;46333;-76
2021/09/17 06:15:18;;;;;;;;;20.25;20.00;;;;;18.71;60.39;100914.41;5073847;27;46226;-78
2021/09/17 06:17:45;;;;;;;;;21.75;20.50;;;;;18.69;60.30;100908.41;5074950;28;45669;-78
2021/09/17 06:20:11;;;;;;;;;20.75;19.75;;;;;18.71;60.56;100916.25;5073611;28;45879;-75
2021/09/17 06:22:39;;;;;;;;;19.75;19.00;;;;;18.73;60.22;100915.06;5074775;27;46380;-77
2021/09/17 06:25:05;;;;;;;;;23.50;20.25;;;;;18.74;60.13;100911.44;5074276;27;46236;-77
2021/09/17 06:27:32;;;;;;;;;23.75;21.50;;;;;18.75;60.30;100906.97;5073417;28;45791;-77
2021/09/17 06:29:57;;;;;;;;;21.75;20.75;;;;;18.76;60.59;100906.00;5075111;27;45824;-77
2021/09/17 06:35:45;;;;;;;;;24.00;22.25;;;;;18.77;60.18;100905.00;5073979;28;45944;-77
2021/09/17 06:38:10;;;;;;;;;43.75;33.75;;;;;18.72;60.19;100888.72;5073836;27;45553;-77
2021/09/17 06:40:36;;;;;;;;;26.75;25.00;;;;;18.78;60.10;100896.91;5074264;27;45862;-76
2021/09/17 06:43:01;;;;;;;;;29.25;27.25;;;;;18.81;60.18;100896.56;5074243;27;45494;-77
2021/09/17 06:45:27;;;;;;;;;27.75;26.00;;;;;18.82;60.15;100902.72;5073568;27;45973;-75
2021/09/17 06:51:14;;;;;;;;;24.50;22.50;;;;;18.73;60.54;100880.56;5074021;28;45566;-77
2021/09/17 06:53:39;;;;;;;;;21.50;20.00;;;;;18.71;60.50;100881.72;5074091;28;46257;-77
2021/09/17 06:56:05;;;;;;;;;23.00;21.00;;;;;18.86;60.56;100899.59;5074240;28;45776;-77
2021/09/17 06:58:33;;;;;;;;;20.00;18.75;;;;;18.86;60.24;100901.41;5074203;27;46078;-76
2021/09/17 07:01:00;;;;;;;;;23.50;21.00;;;;;18.78;60.42;100883.63;5074234;27;45615;-77
2021/09/17 07:03:26;;;;;;;;;20.25;19.50;;;;;18.85;60.77;100889.97;5073926;27;46673;-77
2021/09/17 07:05:51;;;;;;;;;24.00;22.75;;;;;18.90;60.90;100891.31;5073637;27;45645;-77
2021/09/17 07:08:18;;;;;;;;;23.00;22.00;;;;;18.91;60.50;100887.66;5073821;27;45661;-77
2021/09/17 07:10:44;;;;;;;;;27.75;23.50;;;;;18.91;60.86;100879.69;5074051;27;45547;-76
2021/09/17 07:13:11;;;;;;;;;20.75;19.75;;;;;18.94;60.35;100890.88;5075592;27;45467;-77
2021/09/17 07:15:36;;;;;;;;;20.25;19.00;;;;;18.97;60.23;100887.03;5076944;27;46303;-78
2021/09/17 07:21:23;;;;;;;;;18.00;17.75;;;;;18.99;60.46;100891.22;5077309;28;45625;-78
2021/09/17 07:23:49;;;;;;;;;19.25;16.75;;;;;18.98;60.28;100888.72;5076905;27;46533;-77
2021/09/17 07:26:14;;;;;;;;;17.75;16.25;;;;;19.03;60.32;100889.91;5076698;27;47213;-76
2021/09/17 07:28:40;;;;;;;;;18.75;18.75;;;;;19.04;60.55;100896.06;5077233;27;45724;-78
2021/09/17 07:31:06;;;;;;;;;20.25;18.75;;;;;19.00;60.34;100882.25;5077219;27;45586;-74
2021/09/17 07:33:31;;;;;;;;;19.75;19.50;;;;;18.98;60.33;100876.28;5075249;28;47730;-77
2021/09/17 07:35:57;;;;;;;;;22.50;20.75;;;;;18.95;60.69;100865.94;5077002;27;46199;-77
2021/09/17 07:38:22;;;;;;;;;19.75;19.50;;;;;19.08;60.08;100892.09;5077017;27;45596;-77
2021/09/17 07:40:48;;;;;;;;;21.50;19.75;;;;;19.09;60.03;100891.94;5077197;27;45770;-77
2021/09/17 07:43:13;;;;;;;;;20.50;19.25;;;;;19.09;60.33;100897.25;5077098;27;46358;-77
2021/09/17 07:45:39;;;;;;;;;21.00;20.25;;;;;19.12;60.04;100901.41;5092469;27;46078;-77
2021/09/17 07:51:26;;;;;;;;;19.25;17.50;;;;;19.14;60.20;100905.59;5077011;28;45530;-77
2021/09/17 07:53:51;;;;;;;;;20.75;19.25;;;;;19.08;60.20;100884.97;5077083;27;46160;-77
2021/09/17 07:56:17;;;;;;;;;20.00;19.00;;;;;19.18;59.96;100903.44;5077234;27;45609;-76
2021/09/17 07:58:42;;;;;;;;;20.25;19.50;;;;;19.19;60.12;100902.47;5076738;27;46154;-77
2021/09/17 08:01:08;;;;;;;;;20.75;19.25;;;;;19.21;60.17;100903.16;5077037;27;45502;-75
2021/09/17 08:03:33;;;;;;;;;18.50;17.50;;;;;19.23;60.11;100903.81;5076735;27;45484;-77
2021/09/17 08:05:59;;;;;;;;;21.75;18.25;;;;;19.25;60.29;100901.84;5076473;28;45741;-75
2021/09/17 08:08:25;;;;;;;;;18.75;18.00;;;;;19.26;60.21;100904.34;5076572;27;45638;-77
2021/09/17 08:10:51;;;;;;;;;20.25;18.00;;;;;19.27;59.94;100898.00;5076893;27;45602;-77
2021/09/17 08:13:17;;;;;;;;;17.75;16.75;;;;;19.32;60.42;100900.22;5076621;27;45635;-77
2021/09/17 08:15:43;;;;;;;;;23.25;21.75;;;;;19.23;59.61;100880.72;5076802;27;46338;-76
2021/09/17 08:21:30;;;;;;;;;20.25;18.50;;;;;19.36;59.75;100909.53;5076615;28;45621;-77
2021/09/17 08:23:55;;;;;;;;;19.50;17.00;;;;;19.37;59.72;100905.88;5076839;27;46463;-77
2021/09/17 08:26:23;;;;;;;;;20.75;19.00;;;;;19.40;59.59;100902.06;5077983;28;45702;-77
2021/09/17 08:28:48;;;;;;;;;23.50;19.75;;;;;19.40;59.53;100904.72;5078064;27;45696;-78
2021/09/17 08:31:14;;;;;;;;;23.75;21.00;;;;;19.44;59.81;100895.44;5076750;27;45724;-78
2021/09/17 08:33:39;;;;;;;;;19.75;17.50;;;;;19.47;59.76;100908.44;5076860;28;47350;-76
2021/09/17 08:36:05;;;;;;;;;17.25;16.75;;;;;19.49;59.34;100901.97;5078115;27;45628;-76
2021/09/17 08:38:30;;;;;;;;;20.00;18.25;;;;;19.52;59.90;100898.19;5076359;27;45600;-78
2021/09/17 08:40:58;;;;;;;;;17.00;15.75;;;;;19.54;59.59;100902.31;5073914;27;45498;-76
2021/09/17 08:43:25;;;;;;;;;13.75;13.75;;;;;19.57;59.51;100899.38;5074957;27;47489;-77
2021/09/17 08:45:52;;;;;;;;;17.50;15.75;;;;;19.53;59.61;100889.22;5073452;28;48357;-75
2021/09/17 08:51:39;;;;;;;;;15.50;14.50;;;;;19.68;59.86;100896.41;5074678;28;45586;-76
2021/09/17 08:54:05;;;;;;;;;14.25;12.75;;;;;19.71;59.36;100897.91;5075046;27;45747;-78
2021/09/17 08:56:32;;;;;;;;;14.00;14.00;;;;;19.75;59.33;100893.13;5075099;27;46236;-79
2021/09/17 08:58:58;;;;;;;;;16.50;13.50;;;;;19.80;59.27;100893.47;5075120;27;45731;-78
2021/09/17 09:01:36;;;;;;;;;16.75;14.00;;;;;19.83;59.20;100896.63;5074966;27;45628;-78
2021/09/17 09:04:04;;;;;;;;;14.75;14.75;;;;;19.87;59.30;100892.63;5074659;27;47761;-76
2021/09/17 09:06:48;;;;;;;;;14.50;13.00;;;;;19.89;59.16;100895.97;5074605;27;45770;-77
2021/09/17 09:09:20;;;;;;;;;11.75;11.50;;;;;19.94;58.93;100895.50;5074728;27;45749;-77
2021/09/17 09:11:50;;;;;;;;;13.25;11.25;;;;;19.85;58.79;100873.38;5075009;27;45541;-77
2021/09/17 09:14:17;;;;;;;;;11.25;10.00;;;;;19.88;59.26;100866.88;5074863;27;46388;-77
2021/09/17 09:16:48;;;;;;;;;8.25;7.00;;;;;19.98;58.83;100879.03;5075001;27;46418;-77
2021/09/17 09:19:27;;;;;;;;;8.75;8.00;;;;;20.05;58.48;100890.69;5075179;28;45781;-78
2021/09/17 09:22:09;;;;;;;;;12.00;11.25;;;;;20.09;58.84;100888.53;5074944;27;45621;-78
2021/09/17 09:24:40;;;;;;;;;8.50;7.75;;;;;20.11;58.52;100883.91;5074836;27;45652;-78
2021/09/17 09:27:10;;;;;;;;;6.75;6.50;;;;;20.17;58.47;100890.38;5074868;27;47081;-77
2021/09/17 09:29:37;;;;;;;;;8.50;7.25;;;;;20.19;58.29;100881.22;5075232;27;45646;-78
2021/09/17 09:32:04;;;;;;;;;5.75;5.75;;;;;20.22;58.40;100886.25;5075300;27;45557;-78
2021/09/17 09:34:53;;;;;;;;;7.25;6.50;;;;;20.21;58.11;100871.25;5073787;27;46439;-78
2021/09/17 09:37:21;;;;;;;;;6.75;6.00;;;;;20.29;58.02;100879.28;5075480;27;47073;-77
2021/09/17 09:39:53;;;;;;;;;8.25;8.00;;;;;20.32;58.13;100878.97;5075591;27;45687;-77
2021/09/17 09:42:20;;;;;;;;;11.00;9.75;;;;;20.35;57.85;100880.47;5075624;28;45518;-78
2021/09/17 09:45:10;;;;;;;;;9.50;8.00;;;;;20.39;58.03;100879.13;5075055;27;46033;-77
2021/09/17 09:47:38;;;;;;;;;10.00;8.00;;;;;20.41;57.62;100879.78;5075302;27;45984;-77
2021/09/17 09:50:10;;;;;;;;;9.50;8.00;;;;;20.43;57.68;100872.47;5075022;27;45629;-77
2021/09/17 09:52:37;;;;;;;;;9.75;8.00;;;;;20.36;57.60;100858.16;5075158;28;45817;-77
2021/09/17 09:55:05;;;;;;;;;8.25;8.00;;;;;20.51;57.58;100869.84;5074823;27;45624;-82
2021/09/17 09:57:32;;;;;;;;;6.75;6.25;;;;;20.57;57.58;100871.00;5074984;28;46211;-83
2021/09/17 10:00:04;;;;;;;;;7.00;6.75;;;;;20.61;57.15;100878.47;5075060;27;45582;-78
2021/09/17 10:02:30;;;;;;;;;6.00;6.00;;;;;20.66;56.92;100867.31;5074766;27;45568;-83
2021/09/17 10:04:58;;;;;;;;;7.00;6.75;;;;;20.70;57.20;100869.47;5074108;28;46430;-83
2021/09/17 10:07:27;;;;;;;;;6.50;6.50;;;;;20.75;56.86;100861.81;5074192;28;46089;-82
2021/09/17 10:09:53;;;;;;;;;7.75;7.00;;;;;20.78;56.57;100856.13;5074694;27;45534;-79
2021/09/17 10:12:19;;;;;;;;;7.75;7.00;;;;;20.87;56.62;100857.81;5075134;27;45707;-86
2021/09/17 10:14:47;;;;;;;;;6.00;6.00;;;;;20.93;56.33;100858.97;5074956;27;45518;-76
2021/09/17 10:17:19;;;;;;;;;7.00;7.00;;;;;20.98;56.42;100861.09;5074777;27;45915;-75
2021/09/17 10:19:46;;;;;;;;;12.25;10.00;;;;;20.92;56.35;100847.47;5074561;27;45668;-78
2021/09/17 10:22:28;;;;;;;;;7.50;7.00;;;;;20.97;56.33;100844.28;5074787;27;45777;-76
2021/09/17 10:25:24;;;;;;;;;8.25;7.25;;;;;21.08;55.94;100857.25;5074072;27;45536;-78
2021/09/17 10:28:05;;;;;;;;;6.25;6.25;;;;;21.11;55.77;100853.38;5073920;27;46318;-78
2021/09/17 10:30:34;;;;;;;;;7.25;7.00;;;;;21.17;55.86;100853.56;5074587;27;45518;-77
2021/09/17 10:33:00;;;;;;;;;9.25;7.75;;;;;21.21;56.07;100854.09;5075421;27;45616;-79
2021/09/17 10:35:29;;;;;;;;;7.25;6.00;;;;;21.25;55.56;100848.22;5075831;28;47488;-81
2021/09/17 10:38:15;;;;;;;;;7.50;7.00;;;;;21.29;55.18;100851.38;5075719;27;45577;-79
2021/09/17 10:40:43;;;;;;;;;8.75;7.50;;;;;21.33;55.25;100847.34;5077692;28;45720;-81
2021/09/17 10:43:08;;;;;;;;;7.00;6.00;;;;;21.37;54.83;100846.03;5076540;27;45532;-78
2021/09/17 10:46:04;;;;;;;;;6.25;5.75;;;;;21.41;55.13;100844.66;5074744;27;45474;-78
2021/09/17 10:48:41;;;;;;;;;6.50;6.50;;;;;21.45;54.50;100853.13;5075605;28;46033;-74
2021/09/17 10:51:09;;;;;;;;;9.50;9.50;;;;;21.45;54.68;100843.31;5075281;28;45781;-79
2021/09/17 10:53:40;;;;;;;;;7.75;6.50;;;;;21.49;54.71;100841.13;5058591;28;45721;-79
2021/09/17 10:56:14;;;;;;;;;6.25;5.50;;;;;21.53;54.67;100842.44;5075155;28;45569;-80
2021/09/17 10:58:43;;;;;;;;;6.00;5.75;;;;;21.57;54.55;100839.25;5075172;28;45921;-76
2021/09/17 11:01:15;;;;;;;;;6.50;6.50;;;;;21.60;54.38;100838.91;5075239;28;45676;-80
2021/09/17 11:03:41;;;;;;;;;5.25;5.00;;;;;21.65;54.25;100841.88;5074997;28;45781;-75
2021/09/17 11:06:18;;;;;;;;;5.25;5.00;;;;;21.70;53.69;100841.38;5074573;28;45693;-78
2021/09/17 11:08:48;;;;;;;;;4.25;4.00;;;;;21.75;53.47;100833.66;5075080;28;45608;-76
2021/09/17 11:11:31;;;;;;;;;5.00;5.00;;;;;21.79;53.15;100829.63;5075025;28;45551;-75
2021/09/17 11:13:59;;;;;;;;;4.00;3.50;;;;;21.79;52.95;100829.63;5074482;28;45681;-79
2021/09/17 11:16:27;;;;;;;;;4.50;4.50;;;;;21.85;52.81;100828.94;5074246;28;47121;-75
2021/09/17 11:19:06;;;;;;;;;5.00;5.00;;;;;21.93;52.77;100831.53;5074835;28;46022;-77
2021/09/17 11:21:34;;;;;;;;;4.25;4.25;;;;;21.98;52.83;100823.03;5076983;28;45719;-78
2021/09/17 11:24:00;;;;;;;;;5.75;5.50;;;;;22.02;52.76;100821.69;5076040;28;45822;-81
2021/09/17 11:26:29;;;;;;;;;7.00;7.00;;;;;22.05;52.74;100822.16;5077622;28;47302;-83
2021/09/17 11:29:08;;;;;;;;;4.00;4.00;;;;;22.09;52.24;100818.09;5077458;27;46124;-77
2021/09/17 11:31:36;;;;;;;;;6.25;5.50;;;;;22.13;52.45;100813.25;5076862;27;45586;-77
2021/09/17 11:34:07;;;;;;;;;3.75;3.75;;;;;22.17;52.01;100810.06;5075643;28;45876;-77
2021/09/17 11:36:33;;;;;;;;;6.00;6.00;;;;;22.16;52.41;100788.88;5076700;27;45901;-77
2021/09/17 11:39:12;;;;;;;;;6.00;5.00;;;;;22.25;51.72;100806.47;5076698;27;45830;-78
2021/09/17 11:41:39;;;;;;;;;6.00;5.00;;;;;22.26;51.97;100794.78;5076568;27;45675;-78
2021/09/17 11:44:04;;;;;;;;;5.00;5.00;;;;;22.28;51.40;100794.63;5076413;27;45653;-77
2021/09/17 11:46:29;;;;;;;;;4.50;4.25;;;;;22.35;51.97;100793.69;5076713;27;45613;-78
2021/09/17 11:48:55;;;;;;;;;4.00;4.00;;;;;22.23;51.58;100779.16;5076374;27;46291;-78
2021/09/17 11:51:21;;;;;;;;;6.00;5.00;;;;;22.34;51.41;100784.06;5076580;28;45769;-79
2021/09/17 11:53:47;;;;;;;;;4.00;4.00;;;;;22.45;51.61;100798.81;5076430;27;45669;-78
2021/09/17 11:56:13;;;;;;;;;6.00;5.75;;;;;22.51;51.52;100803.41;5076790;27;46559;-78
2021/09/17 11:58:45;;;;;;;;;7.00;6.75;;;;;22.44;51.36;100773.09;5075885;27;45697;-78
2021/09/17 12:01:23;;;;;;;;;5.00;5.00;;;;;22.60;51.35;100795.13;5076389;27;45639;-78
2021/09/17 12:03:50;;;;;;;;;6.00;5.00;;;;;22.63;51.37;100791.25;5075995;27;45685;-78
2021/09/17 12:06:16;;;;;;;;;7.00;6.00;;;;;22.64;50.91;100784.06;5075817;28;46496;-77
2021/09/17 12:08:42;;;;;;;;;6.00;6.00;;;;;22.74;51.08;100790.00;5076363;27;46235;-77
2021/09/17 12:11:08;;;;;;;;;6.25;5.25;;;;;22.72;50.65;100784.88;5075991;27;45596;-76
2021/09/17 12:13:33;;;;;;;;;6.50;6.00;;;;;22.79;50.89;100790.28;5075895;27;45602;-77
2021/09/17 12:15:59;;;;;;;;;6.00;6.00;;;;;22.83;50.75;100783.59;5076112;27;45658;-78
2021/09/17 12:18:29;;;;;;;;;8.00;8.00;;;;;22.92;50.38;100790.50;5075906;27;45895;-78
2021/09/17 12:20:59;;;;;;;;;6.50;6.00;;;;;22.94;49.99;100780.44;5075946;27;45690;-78
2021/09/17 12:23:38;;;;;;;;;8.00;7.00;;;;;22.97;50.69;100778.22;5076187;27;45776;-79
2021/09/17 12:26:12;;;;;;;;;7.00;7.00;;;;;23.00;50.49;100785.03;5076033;27;45517;-78